sensor_id;sensor_type;location;lat;lon;timestamp;temperature;humidity
60039;DHT22;45916;52.734;6.544;2023-05-25T00:00:10;7.10;99.90
60039;DHT22;45916;52.734;6.544;2023-05-25T00:02:37;7.20;99.90
60039;DHT22;45916;52.734;6.544;2023-05-25T00:05:06;7.30;99.90
60039;DHT22;45916;52.734;6.544;2023-05-25T00:07:32;7.30;99.90
60039;DHT22;45916;52.734;6.544;2023-05-25T00:09:58;7.40;99.90
60039;DHT22;45916;52.734;6.544;2023-05-25T00:12:23;7.40;99.90
60039;DHT22;45916;52.734;6.544;2023-05-25T00:14:49;7.40;99.90
60039;DHT22;45916;52.734;6.544;2023-05-25T00:17:15;7.40;99.90
60039;DHT22;45916;52.734;6.544;2023-05-25T00:19:43;7.30;99.90
60039;DHT22;45916;52.734;6.544;2023-05-25T00:22:10;7.20;99.90
60039;DHT22;45916;52.734;6.544;2023-05-25T00:24:37;7.10;99.90
60039;DHT22;45916;52.734;6.544;2023-05-25T00:27:03;7.10;99.90
60039;DHT22;45916;52.734;6.544;2023-05-25T00:29:29;7.00;99.90
60039;DHT22;45916;52.734;6.544;2023-05-25T00:31:55;7.00;99.90
60039;DHT22;45916;52.734;6.544;2023-05-25T00:34:21;7.00;99.90
60039;DHT22;45916;52.734;6.544;2023-05-25T00:36:47;7.00;99.90
60039;DHT22;45916;52.734;6.544;2023-05-25T00:39:17;6.90;99.90
60039;DHT22;45916;52.734;6.544;2023-05-25T00:41:44;6.90;99.90
60039;DHT22;45916;52.734;6.544;2023-05-25T00:44:11;6.80;99.90
60039;DHT22;45916;52.734;6.544;2023-05-25T00:46:44;6.70;99.90
60039;DHT22;45916;52.734;6.544;2023-05-25T00:49:13;6.70;99.90
60039;DHT22;45916;52.734;6.544;2023-05-25T00:51:40;6.70;99.90
60039;DHT22;45916;52.734;6.544;2023-05-25T00:57:01;6.70;99.90
60039;DHT22;45916;52.734;6.544;2023-05-25T00:59:41;6.70;99.90
60039;DHT22;45916;52.734;6.544;2023-05-25T01:02:12;6.80;99.90
60039;DHT22;45916;52.734;6.544;2023-05-25T01:04:44;6.80;99.90
60039;DHT22;45916;52.734;6.544;2023-05-25T01:07:16;6.70;99.90
60039;DHT22;45916;52.734;6.544;2023-05-25T01:09:44;6.70;99.90
60039;DHT22;45916;52.734;6.544;2023-05-25T01:12:10;6.80;99.90
60039;DHT22;45916;52.734;6.544;2023-05-25T01:14:38;6.80;99.90
60039;DHT22;45916;52.734;6.544;2023-05-25T01:17:08;6.80;99.90
60039;DHT22;45916;52.734;6.544;2023-05-25T01:19:34;6.80;99.90
60039;DHT22;45916;52.734;6.544;2023-05-25T01:22:15;6.80;99.90
60039;DHT22;45916;52.734;6.544;2023-05-25T01:24:51;6.70;99.90
60039;DHT22;45916;52.734;6.544;2023-05-25T01:27:25;6.70;99.90
60039;DHT22;45916;52.734;6.544;2023-05-25T01:29:58;6.60;99.90
60039;DHT22;45916;52.734;6.544;2023-05-25T01:32:24;6.60;99.90
60039;DHT22;45916;52.734;6.544;2023-05-25T01:34:51;6.60;99.90
60039;DHT22;45916;52.734;6.544;2023-05-25T01:37:20;6.50;99.90
60039;DHT22;45916;52.734;6.544;2023-05-25T01:39:49;6.50;99.90
60039;DHT22;45916;52.734;6.544;2023-05-25T01:42:15;6.50;99.90
60039;DHT22;45916;52.734;6.544;2023-05-25T01:44:41;6.40;99.90
60039;DHT22;45916;52.734;6.544;2023-05-25T01:47:15;6.40;99.90
60039;DHT22;45916;52.734;6.544;2023-05-25T01:50:05;6.40;99.90
60039;DHT22;45916;52.734;6.544;2023-05-25T01:52:35;6.30;99.90
60039;DHT22;45916;52.734;6.544;2023-05-25T01:55:07;6.30;99.90
60039;DHT22;45916;52.734;6.544;2023-05-25T01:57:35;6.40;99.90
60039;DHT22;45916;52.734;6.544;2023-05-25T02:00:02;6.50;99.90
60039;DHT22;45916;52.734;6.544;2023-05-25T02:02:30;6.60;99.90
60039;DHT22;45916;52.734;6.544;2023-05-25T02:04:56;6.70;99.90
60039;DHT22;45916;52.734;6.544;2023-05-25T02:07:22;6.80;99.90
60039;DHT22;45916;52.734;6.544;2023-05-25T02:09:48;6.70;99.90
60039;DHT22;45916;52.734;6.544;2023-05-25T02:12:14;6.60;99.90
60039;DHT22;45916;52.734;6.544;2023-05-25T02:14:39;6.60;99.90
60039;DHT22;45916;52.734;6.544;2023-05-25T02:17:05;6.60;99.90
60039;DHT22;45916;52.734;6.544;2023-05-25T02:19:31;6.60;99.90
60039;DHT22;45916;52.734;6.544;2023-05-25T02:21:57;6.60;99.90
60039;DHT22;45916;52.734;6.544;2023-05-25T02:24:23;6.60;99.90
60039;DHT22;45916;52.734;6.544;2023-05-25T02:26:49;6.60;99.90
60039;DHT22;45916;52.734;6.544;2023-05-25T02:29:16;6.70;99.90
60039;DHT22;45916;52.734;6.544;2023-05-25T02:31:42;6.70;99.90
60039;DHT22;45916;52.734;6.544;2023-05-25T02:34:07;6.70;99.90
60039;DHT22;45916;52.734;6.544;2023-05-25T02:36:33;6.60;99.90
60039;DHT22;45916;52.734;6.544;2023-05-25T02:38:59;6.60;99.90
60039;DHT22;45916;52.734;6.544;2023-05-25T02:41:25;6.50;99.90
60039;DHT22;45916;52.734;6.544;2023-05-25T02:43:52;6.40;99.90
60039;DHT22;45916;52.734;6.544;2023-05-25T02:46:18;6.40;99.90
60039;DHT22;45916;52.734;6.544;2023-05-25T02:48:44;6.40;99.90
60039;DHT22;45916;52.734;6.544;2023-05-25T02:51:10;6.40;99.90
60039;DHT22;45916;52.734;6.544;2023-05-25T02:53:35;6.40;99.90
60039;DHT22;45916;52.734;6.544;2023-05-25T02:56:02;6.40;99.90
60039;DHT22;45916;52.734;6.544;2023-05-25T02:58:29;6.30;99.90
60039;DHT22;45916;52.734;6.544;2023-05-25T03:00:55;6.30;99.90
60039;DHT22;45916;52.734;6.544;2023-05-25T03:03:21;6.30;99.90
60039;DHT22;45916;52.734;6.544;2023-05-25T03:05:47;6.30;99.90
60039;DHT22;45916;52.734;6.544;2023-05-25T03:08:13;6.30;99.90
60039;DHT22;45916;52.734;6.544;2023-05-25T03:10:39;6.40;99.90
60039;DHT22;45916;52.734;6.544;2023-05-25T03:13:04;6.40;99.90
60039;DHT22;45916;52.734;6.544;2023-05-25T03:15:30;6.40;99.90
60039;DHT22;45916;52.734;6.544;2023-05-25T03:17:56;6.40;99.90
60039;DHT22;45916;52.734;6.544;2023-05-25T03:20:26;6.40;99.90
60039;DHT22;45916;52.734;6.544;2023-05-25T03:22:53;6.40;99.90
60039;DHT22;45916;52.734;6.544;2023-05-25T03:25:19;6.40;99.90
60039;DHT22;45916;52.734;6.544;2023-05-25T03:27:45;6.30;99.90
60039;DHT22;45916;52.734;6.544;2023-05-25T03:30:11;6.20;99.90
60039;DHT22;45916;52.734;6.544;2023-05-25T03:32:37;6.20;99.90
60039;DHT22;45916;52.734;6.544;2023-05-25T03:35:04;6.20;99.90
60039;DHT22;45916;52.734;6.544;2023-05-25T03:37:30;6.20;99.90
60039;DHT22;45916;52.734;6.544;2023-05-25T03:39:55;6.20;99.90
60039;DHT22;45916;52.734;6.544;2023-05-25T03:42:21;6.20;99.90
60039;DHT22;45916;52.734;6.544;2023-05-25T03:44:47;6.20;99.90
60039;DHT22;45916;52.734;6.544;2023-05-25T03:47:12;6.10;99.90
60039;DHT22;45916;52.734;6.544;2023-05-25T03:49:38;6.20;99.90
60039;DHT22;45916;52.734;6.544;2023-05-25T03:52:04;6.20;99.90
60039;DHT22;45916;52.734;6.544;2023-05-25T03:54:31;6.30;99.90
60039;DHT22;45916;52.734;6.544;2023-05-25T03:56:56;6.40;99.90
60039;DHT22;45916;52.734;6.544;2023-05-25T03:59:24;6.50;99.90
60039;DHT22;45916;52.734;6.544;2023-05-25T04:01:52;6.60;99.90
60039;DHT22;45916;52.734;6.544;2023-05-25T04:04:19;6.70;99.90
60039;DHT22;45916;52.734;6.544;2023-05-25T04:06:45;6.70;99.90
60039;DHT22;45916;52.734;6.544;2023-05-25T04:09:16;6.90;99.90
60039;DHT22;45916;52.734;6.544;2023-05-25T04:11:43;7.20;99.90
60039;DHT22;45916;52.734;6.544;2023-05-25T04:14:09;7.30;99.90
60039;DHT22;45916;52.734;6.544;2023-05-25T04:16:35;7.40;99.90
60039;DHT22;45916;52.734;6.544;2023-05-25T04:19:00;7.50;99.90
60039;DHT22;45916;52.734;6.544;2023-05-25T04:21:26;7.60;99.90
60039;DHT22;45916;52.734;6.544;2023-05-25T04:23:52;7.70;99.90
60039;DHT22;45916;52.734;6.544;2023-05-25T04:26:18;7.80;99.90
60039;DHT22;45916;52.734;6.544;2023-05-25T04:28:43;7.90;99.90
60039;DHT22;45916;52.734;6.544;2023-05-25T04:31:10;8.00;99.90
60039;DHT22;45916;52.734;6.544;2023-05-25T04:33:38;8.20;99.90
60039;DHT22;45916;52.734;6.544;2023-05-25T04:36:07;8.30;99.90
60039;DHT22;45916;52.734;6.544;2023-05-25T04:38:35;8.50;99.90
60039;DHT22;45916;52.734;6.544;2023-05-25T04:41:02;8.60;99.90
60039;DHT22;45916;52.734;6.544;2023-05-25T04:43:28;8.80;99.90
60039;DHT22;45916;52.734;6.544;2023-05-25T04:45:58;9.00;99.90
60039;DHT22;45916;52.734;6.544;2023-05-25T04:48:24;9.10;99.90
60039;DHT22;45916;52.734;6.544;2023-05-25T04:50:53;9.30;99.90
60039;DHT22;45916;52.734;6.544;2023-05-25T04:53:21;9.40;99.90
60039;DHT22;45916;52.734;6.544;2023-05-25T04:55:47;9.80;99.90
60039;DHT22;45916;52.734;6.544;2023-05-25T04:58:13;10.70;99.90
60039;DHT22;45916;52.734;6.544;2023-05-25T05:00:39;12.00;99.90
60039;DHT22;45916;52.734;6.544;2023-05-25T05:03:05;13.40;99.90
60039;DHT22;45916;52.734;6.544;2023-05-25T05:05:31;14.60;99.90
60039;DHT22;45916;52.734;6.544;2023-05-25T05:07:57;15.60;99.90
60039;DHT22;45916;52.734;6.544;2023-05-25T05:10:22;16.80;99.90
60039;DHT22;45916;52.734;6.544;2023-05-25T05:12:48;18.10;99.90
60039;DHT22;45916;52.734;6.544;2023-05-25T05:15:14;19.20;99.90
60039;DHT22;45916;52.734;6.544;2023-05-25T05:17:40;20.10;99.90
60039;DHT22;45916;52.734;6.544;2023-05-25T05:20:06;20.80;99.90
60039;DHT22;45916;52.734;6.544;2023-05-25T05:22:32;21.40;99.90
60039;DHT22;45916;52.734;6.544;2023-05-25T05:24:58;22.40;99.90
60039;DHT22;45916;52.734;6.544;2023-05-25T05:27:24;23.40;96.80
60039;DHT22;45916;52.734;6.544;2023-05-25T05:29:52;24.40;86.50
60039;DHT22;45916;52.734;6.544;2023-05-25T05:32:18;24.80;73.20
60039;DHT22;45916;52.734;6.544;2023-05-25T05:34:43;25.10;70.10
60039;DHT22;45916;52.734;6.544;2023-05-25T05:37:09;25.40;71.30
60039;DHT22;45916;52.734;6.544;2023-05-25T05:39:35;25.90;68.90
60039;DHT22;45916;52.734;6.544;2023-05-25T05:42:01;26.60;64.50
60039;DHT22;45916;52.734;6.544;2023-05-25T05:44:26;27.10;60.70
60039;DHT22;45916;52.734;6.544;2023-05-25T05:46:53;27.20;60.80
60039;DHT22;45916;52.734;6.544;2023-05-25T05:49:25;27.90;61.40
60039;DHT22;45916;52.734;6.544;2023-05-25T05:51:51;29.00;57.40
60039;DHT22;45916;52.734;6.544;2023-05-25T05:54:17;30.00;54.70
60039;DHT22;45916;52.734;6.544;2023-05-25T05:56:42;30.80;52.30
60039;DHT22;45916;52.734;6.544;2023-05-25T05:59:10;31.40;50.10
60039;DHT22;45916;52.734;6.544;2023-05-25T06:01:36;31.80;50.00
60039;DHT22;45916;52.734;6.544;2023-05-25T06:04:01;32.10;49.20
60039;DHT22;45916;52.734;6.544;2023-05-25T06:06:27;32.60;48.70
60039;DHT22;45916;52.734;6.544;2023-05-25T06:08:53;33.20;46.80
60039;DHT22;45916;52.734;6.544;2023-05-25T06:11:19;33.70;45.80
60039;DHT22;45916;52.734;6.544;2023-05-25T06:13:44;34.20;43.20
60039;DHT22;45916;52.734;6.544;2023-05-25T06:16:10;34.50;42.90
60039;DHT22;45916;52.734;6.544;2023-05-25T06:18:36;34.80;42.80
60039;DHT22;45916;52.734;6.544;2023-05-25T06:21:02;35.10;43.00
60039;DHT22;45916;52.734;6.544;2023-05-25T06:23:28;35.60;42.00
60039;DHT22;45916;52.734;6.544;2023-05-25T06:25:54;36.00;40.80
60039;DHT22;45916;52.734;6.544;2023-05-25T06:28:19;36.60;40.50
60039;DHT22;45916;52.734;6.544;2023-05-25T06:30:45;37.00;39.30
60039;DHT22;45916;52.734;6.544;2023-05-25T06:33:11;37.60;37.60
60039;DHT22;45916;52.734;6.544;2023-05-25T06:35:36;37.60;37.90
60039;DHT22;45916;52.734;6.544;2023-05-25T06:38:02;38.10;36.80
60039;DHT22;45916;52.734;6.544;2023-05-25T06:40:28;38.60;36.30
60039;DHT22;45916;52.734;6.544;2023-05-25T06:42:53;39.20;36.30
60039;DHT22;45916;52.734;6.544;2023-05-25T06:45:20;39.70;34.90
60039;DHT22;45916;52.734;6.544;2023-05-25T06:47:45;39.90;33.90
60039;DHT22;45916;52.734;6.544;2023-05-25T06:50:11;40.10;33.20
60039;DHT22;45916;52.734;6.544;2023-05-25T06:52:38;39.50;32.80
60039;DHT22;45916;52.734;6.544;2023-05-25T06:55:04;39.30;31.60
60039;DHT22;45916;52.734;6.544;2023-05-25T06:57:29;37.90;32.20
60039;DHT22;45916;52.734;6.544;2023-05-25T06:59:55;36.00;33.40
60039;DHT22;45916;52.734;6.544;2023-05-25T07:02:21;34.70;35.50
60039;DHT22;45916;52.734;6.544;2023-05-25T07:04:46;33.30;36.90
60039;DHT22;45916;52.734;6.544;2023-05-25T07:07:12;32.20;37.90
60039;DHT22;45916;52.734;6.544;2023-05-25T07:09:39;31.40;39.80
60039;DHT22;45916;52.734;6.544;2023-05-25T07:12:05;30.70;41.10
60039;DHT22;45916;52.734;6.544;2023-05-25T07:14:33;30.80;41.10
60039;DHT22;45916;52.734;6.544;2023-05-25T07:16:59;31.00;40.70
60039;DHT22;45916;52.734;6.544;2023-05-25T07:19:25;31.60;40.10
60039;DHT22;45916;52.734;6.544;2023-05-25T07:21:50;31.80;40.30
60039;DHT22;45916;52.734;6.544;2023-05-25T07:24:16;31.80;40.00
60039;DHT22;45916;52.734;6.544;2023-05-25T07:26:42;32.30;39.90
60039;DHT22;45916;52.734;6.544;2023-05-25T07:29:09;32.10;39.10
60039;DHT22;45916;52.734;6.544;2023-05-25T07:31:36;31.80;39.30
60039;DHT22;45916;52.734;6.544;2023-05-25T07:34:02;31.20;39.00
60039;DHT22;45916;52.734;6.544;2023-05-25T07:36:28;30.90;39.90
60039;DHT22;45916;52.734;6.544;2023-05-25T07:38:53;30.90;39.00
60039;DHT22;45916;52.734;6.544;2023-05-25T07:41:19;30.50;39.70
60039;DHT22;45916;52.734;6.544;2023-05-25T07:43:45;30.30;40.40
60039;DHT22;45916;52.734;6.544;2023-05-25T07:46:11;30.10;40.50
60039;DHT22;45916;52.734;6.544;2023-05-25T07:48:37;29.90;40.90
60039;DHT22;45916;52.734;6.544;2023-05-25T07:51:03;29.10;41.00
60039;DHT22;45916;52.734;6.544;2023-05-25T07:53:28;27.70;42.40
60039;DHT22;45916;52.734;6.544;2023-05-25T07:55:54;26.70;43.70
60039;DHT22;45916;52.734;6.544;2023-05-25T07:58:20;25.50;45.40
60039;DHT22;45916;52.734;6.544;2023-05-25T08:00:45;25.00;47.20
60039;DHT22;45916;52.734;6.544;2023-05-25T08:03:13;24.20;48.00
60039;DHT22;45916;52.734;6.544;2023-05-25T08:05:38;24.00;48.40
60039;DHT22;45916;52.734;6.544;2023-05-25T08:08:04;24.10;49.10
60039;DHT22;45916;52.734;6.544;2023-05-25T08:10:30;24.10;48.20
60039;DHT22;45916;52.734;6.544;2023-05-25T08:12:57;23.80;48.20
60039;DHT22;45916;52.734;6.544;2023-05-25T08:15:23;23.70;49.10
60039;DHT22;45916;52.734;6.544;2023-05-25T08:17:50;23.80;49.50
60039;DHT22;45916;52.734;6.544;2023-05-25T08:20:16;23.90;49.50
60039;DHT22;45916;52.734;6.544;2023-05-25T08:22:42;23.70;49.80
60039;DHT22;45916;52.734;6.544;2023-05-25T08:25:10;23.60;50.00
60039;DHT22;45916;52.734;6.544;2023-05-25T08:27:36;23.40;50.40
60039;DHT22;45916;52.734;6.544;2023-05-25T08:30:02;23.40;51.40
60039;DHT22;45916;52.734;6.544;2023-05-25T08:32:30;23.80;52.70
60039;DHT22;45916;52.734;6.544;2023-05-25T08:34:55;24.00;50.60
60039;DHT22;45916;52.734;6.544;2023-05-25T08:37:21;24.50;49.70
60039;DHT22;45916;52.734;6.544;2023-05-25T08:39:47;24.80;48.50
60039;DHT22;45916;52.734;6.544;2023-05-25T08:42:13;25.20;46.40
60039;DHT22;45916;52.734;6.544;2023-05-25T08:44:39;25.80;45.90
60039;DHT22;45916;52.734;6.544;2023-05-25T08:47:05;25.90;44.80
60039;DHT22;45916;52.734;6.544;2023-05-25T08:49:39;26.40;44.70
60039;DHT22;45916;52.734;6.544;2023-05-25T08:52:09;27.00;45.00
60039;DHT22;45916;52.734;6.544;2023-05-25T08:54:36;26.40;43.60
60039;DHT22;45916;52.734;6.544;2023-05-25T09:05:02;26.20;44.70
60039;DHT22;45916;52.734;6.544;2023-05-25T09:07:28;26.50;45.40
60039;DHT22;45916;52.734;6.544;2023-05-25T09:09:54;26.00;44.40
60039;DHT22;45916;52.734;6.544;2023-05-25T09:12:21;26.00;44.70
60039;DHT22;45916;52.734;6.544;2023-05-25T09:14:48;25.60;44.30
60039;DHT22;45916;52.734;6.544;2023-05-25T09:17:14;25.30;45.20
60039;DHT22;45916;52.734;6.544;2023-05-25T09:19:41;24.90;45.80
60039;DHT22;45916;52.734;6.544;2023-05-25T09:22:07;24.80;47.10
60039;DHT22;45916;52.734;6.544;2023-05-25T09:24:35;24.40;47.90
60039;DHT22;45916;52.734;6.544;2023-05-25T09:27:01;24.20;48.30
60039;DHT22;45916;52.734;6.544;2023-05-25T09:29:28;23.80;47.70
60039;DHT22;45916;52.734;6.544;2023-05-25T09:31:55;23.60;48.20
60039;DHT22;45916;52.734;6.544;2023-05-25T09:34:21;23.40;48.60
60039;DHT22;45916;52.734;6.544;2023-05-25T09:36:47;23.10;48.80
60039;DHT22;45916;52.734;6.544;2023-05-25T09:39:12;22.70;48.80
60039;DHT22;45916;52.734;6.544;2023-05-25T09:41:42;22.60;50.20
60039;DHT22;45916;52.734;6.544;2023-05-25T09:44:08;22.50;50.50
60039;DHT22;45916;52.734;6.544;2023-05-25T09:46:34;22.30;50.40
60039;DHT22;45916;52.734;6.544;2023-05-25T09:49:07;22.10;52.10
60039;DHT22;45916;52.734;6.544;2023-05-25T09:51:34;21.70;53.70
60039;DHT22;45916;52.734;6.544;2023-05-25T09:54:02;21.40;54.30
60039;DHT22;45916;52.734;6.544;2023-05-25T09:56:31;21.40;54.60
60039;DHT22;45916;52.734;6.544;2023-05-25T09:58:58;21.60;54.40
60039;DHT22;45916;52.734;6.544;2023-05-25T10:01:24;21.70;53.20
60039;DHT22;45916;52.734;6.544;2023-05-25T10:03:50;21.70;52.20
60039;DHT22;45916;52.734;6.544;2023-05-25T10:06:19;21.80;52.40
60039;DHT22;45916;52.734;6.544;2023-05-25T10:08:46;22.00;51.90
60039;DHT22;45916;52.734;6.544;2023-05-25T10:11:13;23.00;53.20
60039;DHT22;45916;52.734;6.544;2023-05-25T10:13:43;23.70;50.90
60039;DHT22;45916;52.734;6.544;2023-05-25T10:16:09;23.80;50.20
60039;DHT22;45916;52.734;6.544;2023-05-25T10:21:12;23.50;50.30
60039;DHT22;45916;52.734;6.544;2023-05-25T10:23:44;24.70;52.00
60039;DHT22;45916;52.734;6.544;2023-05-25T10:26:15;27.30;47.70
60039;DHT22;45916;52.734;6.544;2023-05-25T10:28:43;29.40;44.00
60039;DHT22;45916;52.734;6.544;2023-05-25T10:31:13;28.80;41.50
60039;DHT22;45916;52.734;6.544;2023-05-25T10:33:40;28.50;42.80
60039;DHT22;45916;52.734;6.544;2023-05-25T10:36:07;29.10;44.00
60039;DHT22;45916;52.734;6.544;2023-05-25T10:38:35;29.30;42.30
60039;DHT22;45916;52.734;6.544;2023-05-25T10:41:03;28.50;42.20
60039;DHT22;45916;52.734;6.544;2023-05-25T10:43:30;27.30;42.20
60039;DHT22;45916;52.734;6.544;2023-05-25T10:45:56;26.70;43.60
60039;DHT22;45916;52.734;6.544;2023-05-25T10:48:22;27.10;45.10
60039;DHT22;45916;52.734;6.544;2023-05-25T10:50:51;28.50;43.60
60039;DHT22;45916;52.734;6.544;2023-05-25T10:53:19;29.60;40.30
60039;DHT22;45916;52.734;6.544;2023-05-25T10:58:18;30.40;39.50
60039;DHT22;45916;52.734;6.544;2023-05-25T11:01:05;29.50;39.80
60039;DHT22;45916;52.734;6.544;2023-05-25T11:06:20;29.10;40.40
60039;DHT22;45916;52.734;6.544;2023-05-25T11:11:16;27.20;41.00
60039;DHT22;45916;52.734;6.544;2023-05-25T11:13:48;26.40;41.90
60039;DHT22;45916;52.734;6.544;2023-05-25T11:18:58;25.60;43.10
60039;DHT22;45916;52.734;6.544;2023-05-25T11:24:01;25.90;47.30
60039;DHT22;45916;52.734;6.544;2023-05-25T11:26:29;26.00;43.90
60039;DHT22;45916;52.734;6.544;2023-05-25T11:28:56;26.20;46.10
60039;DHT22;45916;52.734;6.544;2023-05-25T11:31:28;26.00;44.10
60039;DHT22;45916;52.734;6.544;2023-05-25T11:33:59;25.20;43.40
60039;DHT22;45916;52.734;6.544;2023-05-25T11:36:27;24.30;43.90
60039;DHT22;45916;52.734;6.544;2023-05-25T11:38:56;24.20;46.30
60039;DHT22;45916;52.734;6.544;2023-05-25T11:41:22;24.00;45.90
60039;DHT22;45916;52.734;6.544;2023-05-25T11:43:50;24.30;48.80
60039;DHT22;45916;52.734;6.544;2023-05-25T11:46:20;24.20;48.80
60039;DHT22;45916;52.734;6.544;2023-05-25T11:48:50;24.00;46.30
60039;DHT22;45916;52.734;6.544;2023-05-25T11:51:22;24.40;48.20
60039;DHT22;45916;52.734;6.544;2023-05-25T11:53:48;24.10;47.60
60039;DHT22;45916;52.734;6.544;2023-05-25T11:56:14;23.30;46.30
60039;DHT22;45916;52.734;6.544;2023-05-25T11:58:41;23.20;46.90
60039;DHT22;45916;52.734;6.544;2023-05-25T12:01:15;22.90;46.40
60039;DHT22;45916;52.734;6.544;2023-05-25T12:03:41;22.80;47.00
60039;DHT22;45916;52.734;6.544;2023-05-25T12:06:07;22.90;47.20
60039;DHT22;45916;52.734;6.544;2023-05-25T12:08:34;23.20;47.20
60039;DHT22;45916;52.734;6.544;2023-05-25T12:11:01;22.60;46.70
60039;DHT22;45916;52.734;6.544;2023-05-25T12:13:27;22.20;47.30
60039;DHT22;45916;52.734;6.544;2023-05-25T12:15:56;21.80;47.80
60039;DHT22;45916;52.734;6.544;2023-05-25T12:18:27;21.70;48.70
60039;DHT22;45916;52.734;6.544;2023-05-25T12:20:54;21.80;50.40
60039;DHT22;45916;52.734;6.544;2023-05-25T12:23:21;21.90;50.10
60039;DHT22;45916;52.734;6.544;2023-05-25T12:25:47;22.20;52.60
60039;DHT22;45916;52.734;6.544;2023-05-25T12:28:14;22.40;52.80
60039;DHT22;45916;52.734;6.544;2023-05-25T12:30:40;22.50;53.20
60039;DHT22;45916;52.734;6.544;2023-05-25T12:33:06;21.90;49.00
60039;DHT22;45916;52.734;6.544;2023-05-25T12:35:49;21.60;49.20
60039;DHT22;45916;52.734;6.544;2023-05-25T12:38:19;21.80;51.50
60039;DHT22;45916;52.734;6.544;2023-05-25T12:40:46;21.70;49.60
60039;DHT22;45916;52.734;6.544;2023-05-25T12:43:11;21.70;50.60
60039;DHT22;45916;52.734;6.544;2023-05-25T12:45:40;21.50;52.30
60039;DHT22;45916;52.734;6.544;2023-05-25T12:48:06;21.60;53.00
60039;DHT22;45916;52.734;6.544;2023-05-25T12:50:32;21.40;51.80
60039;DHT22;45916;52.734;6.544;2023-05-25T12:53:02;21.00;51.90
60039;DHT22;45916;52.734;6.544;2023-05-25T12:55:32;20.60;51.70
60039;DHT22;45916;52.734;6.544;2023-05-25T12:58:06;20.50;52.40
60039;DHT22;45916;52.734;6.544;2023-05-25T13:00:36;20.50;52.80
60039;DHT22;45916;52.734;6.544;2023-05-25T13:03:03;20.50;52.60
60039;DHT22;45916;52.734;6.544;2023-05-25T13:05:33;20.60;52.40
60039;DHT22;45916;52.734;6.544;2023-05-25T13:08:01;20.80;52.00
60039;DHT22;45916;52.734;6.544;2023-05-25T13:10:29;20.50;52.00
60039;DHT22;45916;52.734;6.544;2023-05-25T13:12:57;20.00;52.80
60039;DHT22;45916;52.734;6.544;2023-05-25T13:15:24;20.00;54.00
60039;DHT22;45916;52.734;6.544;2023-05-25T13:17:52;20.20;53.70
60039;DHT22;45916;52.734;6.544;2023-05-25T13:20:20;20.10;53.70
60039;DHT22;45916;52.734;6.544;2023-05-25T13:22:48;20.00;53.50
60039;DHT22;45916;52.734;6.544;2023-05-25T13:25:15;20.40;54.80
60039;DHT22;45916;52.734;6.544;2023-05-25T13:27:48;20.10;52.50
60039;DHT22;45916;52.734;6.544;2023-05-25T13:30:15;20.00;52.70
60039;DHT22;45916;52.734;6.544;2023-05-25T13:32:42;19.80;53.50
60039;DHT22;45916;52.734;6.544;2023-05-25T13:35:09;19.80;53.70
60039;DHT22;45916;52.734;6.544;2023-05-25T13:37:37;19.80;54.20
60039;DHT22;45916;52.734;6.544;2023-05-25T13:40:03;19.90;56.80
60039;DHT22;45916;52.734;6.544;2023-05-25T13:42:29;19.80;55.30
60039;DHT22;45916;52.734;6.544;2023-05-25T13:44:55;19.50;53.90
60039;DHT22;45916;52.734;6.544;2023-05-25T13:47:21;19.30;54.10
60039;DHT22;45916;52.734;6.544;2023-05-25T13:49:47;19.20;54.60
60039;DHT22;45916;52.734;6.544;2023-05-25T13:52:13;19.00;54.60
60039;DHT22;45916;52.734;6.544;2023-05-25T13:54:38;19.00;54.30
60039;DHT22;45916;52.734;6.544;2023-05-25T13:57:04;18.80;53.70
60039;DHT22;45916;52.734;6.544;2023-05-25T13:59:32;18.50;55.00
60039;DHT22;45916;52.734;6.544;2023-05-25T14:01:57;18.50;56.20
60039;DHT22;45916;52.734;6.544;2023-05-25T14:04:23;18.30;56.50
60039;DHT22;45916;52.734;6.544;2023-05-25T14:06:49;18.40;56.20
60039;DHT22;45916;52.734;6.544;2023-05-25T14:09:16;18.50;56.40
60039;DHT22;45916;52.734;6.544;2023-05-25T14:11:41;18.60;56.30
60039;DHT22;45916;52.734;6.544;2023-05-25T14:14:08;18.60;56.70
60039;DHT22;45916;52.734;6.544;2023-05-25T14:16:34;18.80;56.60
60039;DHT22;45916;52.734;6.544;2023-05-25T14:19:01;18.80;56.20
60039;DHT22;45916;52.734;6.544;2023-05-25T14:21:27;18.80;56.40
60039;DHT22;45916;52.734;6.544;2023-05-25T14:23:54;18.80;56.50
60039;DHT22;45916;52.734;6.544;2023-05-25T14:26:20;18.70;56.60
60039;DHT22;45916;52.734;6.544;2023-05-25T14:28:47;18.80;57.90
60039;DHT22;45916;52.734;6.544;2023-05-25T14:31:12;18.80;57.70
60039;DHT22;45916;52.734;6.544;2023-05-25T14:33:38;18.80;58.60
60039;DHT22;45916;52.734;6.544;2023-05-25T14:36:04;18.60;56.70
60039;DHT22;45916;52.734;6.544;2023-05-25T14:38:30;18.60;56.50
60039;DHT22;45916;52.734;6.544;2023-05-25T14:40:57;18.30;56.50
60039;DHT22;45916;52.734;6.544;2023-05-25T14:43:23;18.10;58.00
60039;DHT22;45916;52.734;6.544;2023-05-25T14:45:49;18.00;58.50
60039;DHT22;45916;52.734;6.544;2023-05-25T14:48:15;17.80;58.90
60039;DHT22;45916;52.734;6.544;2023-05-25T14:50:43;17.60;58.20
60039;DHT22;45916;52.734;6.544;2023-05-25T14:53:09;17.60;58.70
60039;DHT22;45916;52.734;6.544;2023-05-25T14:55:34;17.40;58.40
60039;DHT22;45916;52.734;6.544;2023-05-25T14:58:00;17.30;59.20
60039;DHT22;45916;52.734;6.544;2023-05-25T15:00:26;17.50;59.20
60039;DHT22;45916;52.734;6.544;2023-05-25T15:02:51;17.40;59.00
60039;DHT22;45916;52.734;6.544;2023-05-25T15:05:17;17.30;58.70
60039;DHT22;45916;52.734;6.544;2023-05-25T15:07:43;17.40;59.20
60039;DHT22;45916;52.734;6.544;2023-05-25T15:10:08;17.30;59.00
60039;DHT22;45916;52.734;6.544;2023-05-25T15:12:34;17.30;59.00
60039;DHT22;45916;52.734;6.544;2023-05-25T15:15:00;17.30;60.00
60039;DHT22;45916;52.734;6.544;2023-05-25T15:17:26;17.10;59.00
60039;DHT22;45916;52.734;6.544;2023-05-25T15:19:52;17.10;59.40
60039;DHT22;45916;52.734;6.544;2023-05-25T15:22:18;17.20;60.40
60039;DHT22;45916;52.734;6.544;2023-05-25T15:24:43;17.20;60.00
60039;DHT22;45916;52.734;6.544;2023-05-25T15:27:09;17.10;60.40
60039;DHT22;45916;52.734;6.544;2023-05-25T15:29:35;17.10;60.50
60039;DHT22;45916;52.734;6.544;2023-05-25T15:32:00;17.10;60.90
60039;DHT22;45916;52.734;6.544;2023-05-25T15:34:26;17.00;61.10
60039;DHT22;45916;52.734;6.544;2023-05-25T15:36:51;17.10;60.90
60039;DHT22;45916;52.734;6.544;2023-05-25T15:39:17;17.10;61.20
60039;DHT22;45916;52.734;6.544;2023-05-25T15:41:43;17.10;60.80
60039;DHT22;45916;52.734;6.544;2023-05-25T15:44:08;17.00;61.50
60039;DHT22;45916;52.734;6.544;2023-05-25T15:46:37;17.00;61.30
60039;DHT22;45916;52.734;6.544;2023-05-25T15:49:04;16.90;61.20
60039;DHT22;45916;52.734;6.544;2023-05-25T15:51:36;16.70;60.60
60039;DHT22;45916;52.734;6.544;2023-05-25T15:54:02;16.60;61.60
60039;DHT22;45916;52.734;6.544;2023-05-25T15:56:28;16.50;62.50
60039;DHT22;45916;52.734;6.544;2023-05-25T15:58:53;16.40;63.10